createdAt,value
2019-05-07T00:00:45.314Z,6.30
2019-05-07T00:03:15.837Z,6.30
2019-05-07T00:05:46.057Z,6.30
2019-05-07T00:08:16.176Z,6.30
2019-05-07T00:10:46.294Z,6.30
2019-05-07T00:13:16.415Z,6.30
2019-05-07T00:15:46.235Z,6.30
2019-05-07T00:18:16.068Z,6.30
2019-05-07T00:20:46.156Z,6.30
2019-05-07T00:23:16.280Z,6.30
2019-05-07T00:25:46.100Z,6.20
2019-05-07T00:28:16.203Z,6.30
2019-05-07T00:30:46.435Z,6.30
2019-05-07T00:33:16.552Z,6.20
2019-05-07T00:35:48.311Z,6.20
2019-05-07T00:38:22.441Z,6.20
2019-05-07T00:40:54.491Z,6.20
2019-05-07T00:43:25.943Z,6.20
2019-05-07T00:45:57.406Z,6.20
2019-05-07T00:48:27.203Z,6.20
2019-05-07T00:51:17.294Z,6.20
2019-05-07T00:53:47.169Z,6.20
2019-05-07T00:56:16.982Z,6.10
2019-05-07T00:58:47.141Z,6.10
2019-05-07T01:01:19.503Z,6.10
2019-05-07T01:03:49.732Z,6.10
2019-05-07T01:06:19.850Z,6.10
2019-05-07T01:08:52.387Z,6.10
2019-05-07T01:11:22.602Z,6.10
2019-05-07T01:13:52.647Z,6.10
2019-05-07T01:16:22.788Z,6.10
2019-05-07T01:18:53.773Z,6.10
2019-05-07T01:21:24.156Z,6.00
2019-05-07T01:23:54.376Z,6.00
2019-05-07T01:26:24.200Z,6.00
2019-05-07T01:28:58.611Z,6.00
2019-05-07T01:31:32.891Z,5.90
2019-05-07T01:34:04.688Z,5.90
2019-05-07T01:36:34.811Z,5.80
2019-05-07T01:39:06.253Z,5.80
2019-05-07T01:41:36.370Z,5.70
2019-05-07T01:44:06.423Z,5.70
2019-05-07T01:46:36.499Z,5.60
2019-05-07T01:49:06.315Z,5.60
2019-05-07T01:51:36.195Z,5.50
2019-05-07T01:54:07.494Z,5.50
2019-05-07T01:56:37.314Z,5.40
2019-05-07T01:59:07.417Z,5.40
2019-05-07T02:01:37.531Z,5.40
2019-05-07T02:04:08.974Z,5.30
2019-05-07T02:06:42.973Z,5.20
2019-05-07T02:09:26.787Z,5.10
2019-05-07T02:12:02.455Z,5.10
2019-05-07T02:14:33.128Z,5.00
2019-05-07T02:17:04.067Z,5.00
2019-05-07T02:19:34.878Z,4.90
2019-05-07T02:22:05.010Z,4.80
2019-05-07T02:24:35.137Z,4.80
2019-05-07T02:27:06.167Z,4.70
2019-05-07T02:29:38.195Z,4.70
2019-05-07T02:32:07.501Z,4.70
2019-05-07T02:34:37.653Z,4.80
2019-05-07T02:37:09.516Z,4.80
2019-05-07T02:39:55.785Z,4.90
2019-05-07T02:42:25.858Z,4.90
2019-05-07T02:45:09.148Z,5.10
2019-05-07T02:47:39.014Z,5.10
2019-05-07T02:50:16.977Z,5.20
2019-05-07T02:52:54.350Z,5.30
2019-05-07T02:55:28.675Z,5.40
2019-05-07T02:57:58.828Z,5.50
2019-05-07T03:00:28.727Z,5.60
2019-05-07T03:02:58.526Z,5.60
2019-05-07T03:05:28.356Z,5.70
2019-05-07T03:07:58.571Z,5.70
2019-05-07T03:10:28.544Z,5.70
2019-05-07T03:12:58.423Z,5.80
2019-05-07T03:15:28.485Z,5.70
2019-05-07T03:17:58.656Z,5.70
2019-05-07T03:20:33.264Z,5.60
2019-05-07T03:23:03.274Z,5.60
2019-05-07T03:25:34.879Z,5.60
2019-05-07T03:28:04.693Z,5.60
2019-05-07T03:30:39.180Z,5.60
2019-05-07T03:33:16.058Z,5.60
2019-05-07T03:35:47.497Z,5.60
2019-05-07T03:38:17.714Z,5.60
2019-05-07T03:40:47.858Z,5.60
2019-05-07T03:43:17.802Z,5.50
2019-05-07T03:45:55.356Z,5.40
2019-05-07T03:48:27.214Z,5.30
2019-05-07T03:50:57.349Z,5.30
2019-05-07T03:53:27.161Z,5.20
2019-05-07T03:55:57.261Z,5.20
2019-05-07T03:58:27.072Z,5.10
2019-05-07T04:00:56.908Z,5.10
2019-05-07T04:03:27.005Z,5.00
2019-05-07T04:05:56.830Z,5.10
2019-05-07T04:08:26.647Z,5.10
2019-05-07T04:10:56.459Z,5.20
2019-05-07T04:13:26.287Z,5.30
2019-05-07T04:15:56.095Z,5.30
2019-05-07T04:18:26.192Z,5.40
2019-05-07T04:20:56.008Z,5.50
2019-05-07T04:23:26.325Z,5.60
2019-05-07T04:25:58.017Z,5.60
2019-05-07T04:28:46.640Z,5.60
2019-05-07T04:31:17.774Z,5.70
2019-05-07T04:33:47.892Z,5.80
2019-05-07T04:36:19.370Z,5.80
2019-05-07T04:38:49.183Z,5.90
2019-05-07T04:41:19.277Z,5.90
2019-05-07T04:43:49.103Z,6.00
2019-05-07T04:46:18.991Z,6.10
2019-05-07T04:48:48.848Z,6.20
2019-05-07T04:51:23.064Z,6.50
2019-05-07T04:53:54.096Z,6.80
2019-05-07T04:56:24.075Z,7.10
2019-05-07T04:58:54.056Z,7.30
2019-05-07T05:01:25.768Z,7.50
2019-05-07T05:03:55.600Z,7.70
2019-05-07T05:06:25.427Z,7.80
2019-05-07T05:08:56.257Z,7.80
2019-05-07T05:11:27.135Z,7.80
2019-05-07T05:13:57.259Z,7.90
2019-05-07T05:16:27.487Z,8.10
2019-05-07T05:18:57.458Z,8.40
2019-05-07T05:21:42.133Z,8.70
2019-05-07T05:24:13.599Z,9.10
2019-05-07T05:26:43.417Z,9.40
2019-05-07T05:29:13.485Z,9.80
2019-05-07T05:31:43.289Z,10.10
2019-05-07T05:34:13.375Z,10.30
2019-05-07T05:36:43.183Z,10.40
2019-05-07T05:39:13.305Z,10.60
2019-05-07T05:41:44.836Z,10.90
2019-05-07T05:44:16.352Z,11.10
2019-05-07T05:46:46.601Z,11.30
2019-05-07T05:49:16.797Z,11.40
2019-05-07T05:51:52.524Z,11.50
2019-05-07T05:54:31.822Z,11.30
2019-05-07T05:57:06.203Z,11.50
2019-05-07T05:59:55.474Z,11.80
2019-05-07T06:02:39.148Z,12.10
2019-05-07T06:05:27.320Z,12.80
2019-05-07T06:07:58.771Z,13.40
2019-05-07T06:10:46.771Z,14.20
2019-05-07T06:13:18.501Z,14.90
2019-05-07T06:15:59.436Z,15.60
2019-05-07T06:18:47.557Z,16.40
2019-05-07T06:21:24.145Z,17.50
2019-05-07T06:23:56.766Z,18.40
2019-05-07T06:26:26.637Z,19.30
2019-05-07T06:28:56.452Z,19.80
2019-05-07T06:31:26.541Z,20.10
2019-05-07T06:33:56.356Z,21.30
2019-05-07T06:36:26.926Z,22.40
2019-05-07T06:38:58.696Z,23.50
2019-05-07T06:41:32.181Z,24.10
2019-05-07T06:44:06.118Z,24.50
2019-05-07T06:46:38.592Z,24.50
2019-05-07T06:49:07.777Z,24.10
2019-05-07T06:51:37.610Z,24.00
2019-05-07T06:54:07.794Z,24.00
2019-05-07T06:56:37.863Z,23.60
2019-05-07T06:59:13.016Z,23.20
2019-05-07T07:01:48.810Z,23.00
2019-05-07T07:04:23.275Z,23.30
2019-05-07T07:06:55.045Z,23.90
2019-05-07T07:09:38.527Z,24.40
2019-05-07T07:12:26.117Z,24.50
2019-05-07T07:14:58.103Z,24.90
2019-05-07T07:17:27.825Z,25.70
2019-05-07T07:19:57.646Z,25.90
2019-05-07T07:22:27.557Z,25.70
2019-05-07T07:24:57.385Z,25.50
2019-05-07T07:27:27.472Z,25.40
2019-05-07T07:30:04.874Z,25.30
2019-05-07T07:32:42.527Z,26.10
2019-05-07T07:35:13.026Z,26.10
2019-05-07T07:37:43.157Z,26.00
2019-05-07T07:40:15.669Z,25.10
2019-05-07T07:42:45.572Z,24.20
2019-05-07T07:45:18.817Z,24.10
2019-05-07T07:47:49.704Z,24.00
2019-05-07T07:50:22.254Z,24.00
2019-05-07T07:52:52.957Z,24.70
2019-05-07T07:55:24.706Z,25.20
2019-05-07T07:57:58.957Z,26.20
2019-05-07T08:00:39.722Z,27.70
2019-05-07T08:03:13.221Z,28.30
2019-05-07T08:05:42.903Z,28.00
2019-05-07T08:08:13.756Z,26.90
2019-05-07T08:10:43.816Z,26.00
2019-05-07T08:13:13.719Z,25.40
2019-05-07T08:15:43.620Z,25.60
2019-05-07T08:18:13.799Z,26.00
2019-05-07T08:20:43.734Z,25.60
2019-05-07T08:23:13.580Z,24.10
2019-05-07T08:25:49.024Z,22.80
2019-05-07T08:28:22.842Z,22.20
2019-05-07T08:30:56.445Z,23.50
2019-05-07T08:33:27.901Z,23.70
2019-05-07T08:36:12.089Z,23.70
2019-05-07T08:38:49.320Z,25.30
2019-05-07T08:41:22.498Z,25.70
2019-05-07T08:44:11.611Z,24.00
2019-05-07T08:46:34.695Z,22.20
2019-05-07T08:49:06.243Z,20.60
2019-05-07T08:51:36.344Z,19.30
2019-05-07T08:54:06.234Z,18.30
2019-05-07T08:56:38.022Z,19.10
2019-05-07T08:59:08.522Z,20.00
2019-05-07T09:01:43.053Z,19.90
2019-05-07T09:04:13.510Z,19.40
2019-05-07T09:06:43.535Z,18.20
2019-05-07T09:09:14.019Z,17.30
2019-05-07T09:11:44.541Z,17.00
2019-05-07T09:14:14.623Z,16.70
2019-05-07T09:16:44.517Z,18.00
2019-05-07T09:19:14.334Z,20.90
2019-05-07T09:21:44.570Z,22.90
2019-05-07T09:24:14.725Z,22.50
2019-05-07T09:26:46.503Z,21.60
2019-05-07T09:29:27.442Z,20.60
2019-05-07T09:32:12.102Z,19.70
2019-05-07T09:34:52.042Z,18.90
2019-05-07T09:37:29.927Z,18.40
2019-05-07T09:39:59.754Z,17.90
2019-05-07T09:42:29.644Z,17.90
2019-05-07T09:45:01.755Z,18.10
2019-05-07T09:47:32.543Z,18.70
2019-05-07T09:50:07.581Z,20.50
2019-05-07T09:52:35.264Z,21.90
2019-05-07T09:55:16.471Z,22.70
2019-05-07T09:57:42.239Z,22.60
2019-05-07T10:00:13.527Z,23.10
2019-05-07T10:02:43.828Z,24.50
2019-05-07T10:05:14.038Z,25.00
2019-05-07T10:07:44.195Z,23.60
2019-05-07T10:10:15.802Z,22.10
2019-05-07T10:12:53.319Z,20.60
2019-05-07T10:15:23.296Z,19.10
2019-05-07T10:17:54.903Z,17.80
2019-05-07T10:20:26.637Z,17.10
2019-05-07T10:22:56.860Z,16.60
2019-05-07T10:25:30.105Z,16.30
2019-05-07T10:28:01.943Z,16.10
2019-05-07T10:30:33.456Z,16.00
2019-05-07T10:33:03.677Z,15.80
2019-05-07T10:35:34.119Z,15.70
2019-05-07T10:38:04.358Z,15.60
2019-05-07T10:40:34.247Z,15.50
2019-05-07T10:43:04.289Z,15.30
2019-05-07T10:45:42.157Z,15.40
2019-05-07T10:48:32.116Z,15.30
2019-05-07T10:51:04.776Z,15.40
2019-05-07T10:53:35.358Z,15.60
2019-05-07T10:56:05.326Z,15.80
2019-05-07T10:58:35.382Z,15.90
2019-05-07T11:01:05.393Z,16.30
2019-05-07T11:03:35.195Z,16.60
2019-05-07T11:06:05.164Z,17.00
2019-05-07T11:08:35.263Z,17.20
2019-05-07T11:11:05.166Z,17.50
2019-05-07T11:13:34.976Z,17.70
2019-05-07T11:16:11.642Z,17.80
2019-05-07T11:18:48.618Z,18.00
2019-05-07T11:21:29.987Z,18.20
2019-05-07T11:24:03.230Z,18.40
2019-05-07T11:26:32.964Z,18.30
2019-05-07T11:29:03.045Z,18.30
2019-05-07T11:31:33.268Z,18.50
2019-05-07T11:34:03.434Z,18.70
2019-05-07T11:36:34.357Z,18.70
2019-05-07T11:39:06.149Z,18.50
2019-05-07T11:41:54.838Z,18.40
2019-05-07T11:44:26.623Z,18.40
2019-05-07T11:47:14.763Z,18.50
2019-05-07T11:50:03.303Z,18.50
2019-05-07T11:52:35.850Z,18.40
2019-05-07T11:55:06.691Z,18.20
2019-05-07T11:57:36.768Z,18.20
2019-05-07T12:00:09.961Z,18.20
2019-05-07T12:02:41.979Z,18.30
2019-05-07T12:05:12.091Z,18.50
2019-05-07T12:07:42.092Z,18.60
2019-05-07T12:10:12.263Z,18.60
2019-05-07T12:12:43.866Z,18.30
2019-05-07T12:15:13.851Z,18.20
2019-05-07T12:17:44.005Z,18.00
2019-05-07T12:20:15.715Z,17.80
2019-05-07T12:22:47.228Z,17.80
2019-05-07T12:25:21.051Z,17.90
2019-05-07T12:27:52.743Z,17.90
2019-05-07T12:30:42.663Z,18.00
2019-05-07T12:33:22.630Z,18.10
2019-05-07T12:35:52.732Z,18.30
2019-05-07T12:38:22.622Z,18.60
2019-05-07T12:40:52.718Z,18.50
2019-05-07T12:43:22.611Z,18.50
2019-05-07T12:45:52.632Z,18.60
2019-05-07T12:48:22.729Z,18.80
2019-05-07T12:50:52.856Z,18.90
2019-05-07T12:53:28.826Z,19.00
2019-05-07T12:56:02.167Z,19.30
2019-05-07T12:58:32.415Z,19.70
2019-05-07T13:01:13.008Z,20.50
2019-05-07T13:03:56.341Z,21.10
2019-05-07T13:06:26.312Z,21.40
2019-05-07T13:08:56.431Z,20.90
2019-05-07T13:11:26.492Z,20.20
2019-05-07T13:13:56.595Z,19.30
2019-05-07T13:16:26.489Z,18.70
2019-05-07T13:18:56.603Z,18.30
2019-05-07T13:21:26.747Z,18.00
2019-05-07T13:23:56.863Z,17.80
2019-05-07T13:26:27.643Z,17.70
2019-05-07T13:28:57.700Z,17.70
2019-05-07T13:31:29.760Z,17.80
2019-05-07T13:34:02.944Z,17.80
2019-05-07T13:36:35.315Z,17.70
2019-05-07T13:39:12.168Z,17.50
2019-05-07T13:41:44.111Z,17.60
2019-05-07T13:44:25.075Z,17.70
2019-05-07T13:46:57.039Z,17.70
2019-05-07T13:49:27.155Z,17.70
2019-05-07T13:52:03.410Z,17.80
2019-05-07T13:54:29.139Z,17.70
2019-05-07T13:56:59.049Z,17.30
2019-05-07T13:59:29.099Z,17.00
2019-05-07T14:02:04.734Z,16.80
2019-05-07T14:04:33.316Z,16.70
2019-05-07T14:07:03.207Z,16.60
2019-05-07T14:09:33.365Z,16.80
2019-05-07T14:12:03.549Z,17.00
2019-05-07T14:14:34.515Z,17.10
2019-05-07T14:17:05.045Z,17.20
2019-05-07T14:19:36.521Z,17.30
2019-05-07T14:22:15.368Z,17.40
2019-05-07T14:24:37.870Z,17.50
2019-05-07T14:27:07.812Z,17.80
2019-05-07T14:29:37.654Z,18.00
2019-05-07T14:32:12.821Z,18.00
2019-05-07T14:34:45.077Z,18.10
2019-05-07T14:37:16.800Z,18.20
2019-05-07T14:39:46.908Z,18.50
2019-05-07T14:42:18.647Z,18.50
2019-05-07T14:44:49.449Z,18.60
2019-05-07T14:47:22.087Z,18.40
2019-05-07T14:49:52.913Z,18.40
2019-05-07T14:52:32.207Z,18.20
2019-05-07T14:54:55.176Z,17.70
2019-05-07T14:57:25.429Z,17.50
2019-05-07T14:59:55.495Z,17.20
2019-05-07T15:02:25.723Z,16.90
2019-05-07T15:04:55.904Z,16.60
2019-05-07T15:07:25.876Z,16.40
2019-05-07T15:09:56.322Z,16.20
2019-05-07T15:12:26.219Z,16.00
2019-05-07T15:14:56.137Z,16.00
2019-05-07T15:17:33.333Z,15.90
2019-05-07T15:20:04.180Z,16.00
2019-05-07T15:22:49.075Z,16.00
2019-05-07T15:25:11.954Z,15.90
2019-05-07T15:27:42.151Z,15.90
2019-05-07T15:30:13.011Z,15.90
2019-05-07T15:32:42.931Z,15.90
2019-05-07T15:35:13.298Z,15.80
2019-05-07T15:37:43.292Z,15.70
2019-05-07T15:40:13.344Z,15.70
2019-05-07T15:42:43.274Z,15.70
2019-05-07T15:45:13.797Z,15.80
2019-05-07T15:47:45.377Z,15.70
2019-05-07T15:50:15.859Z,15.70
2019-05-07T15:52:58.222Z,15.70
2019-05-07T15:55:19.198Z,15.90
2019-05-07T15:57:52.051Z,15.90
2019-05-07T16:00:24.431Z,15.80
2019-05-07T16:02:58.579Z,15.80
2019-05-07T16:05:28.775Z,15.70
2019-05-07T16:07:58.973Z,15.80
2019-05-07T16:10:29.080Z,15.80
2019-05-07T16:12:58.995Z,15.70
2019-05-07T16:15:28.943Z,15.50
2019-05-07T16:18:02.785Z,15.30
2019-05-07T16:20:33.855Z,15.10
2019-05-07T16:23:14.366Z,15.00
2019-05-07T16:25:35.759Z,14.80
2019-05-07T16:28:06.016Z,14.80
2019-05-07T16:30:36.200Z,14.90
2019-05-07T16:33:06.274Z,15.00
2019-05-07T16:35:36.465Z,15.10
2019-05-07T16:38:06.371Z,15.10
2019-05-07T16:40:36.241Z,15.20
2019-05-07T16:43:06.338Z,15.20
2019-05-07T16:45:36.215Z,15.10
2019-05-07T16:48:06.065Z,15.10
2019-05-07T16:50:36.123Z,14.90
2019-05-07T16:53:06.219Z,14.80
2019-05-07T16:55:36.903Z,14.70
2019-05-07T16:58:12.544Z,14.60
2019-05-07T17:00:44.595Z,14.70
2019-05-07T17:03:16.232Z,14.80
2019-05-07T17:05:47.959Z,15.00
2019-05-07T17:08:19.747Z,15.00
2019-05-07T17:10:49.639Z,15.00
2019-05-07T17:13:19.741Z,14.90
2019-05-07T17:15:59.833Z,14.90
2019-05-07T17:18:32.380Z,14.90
2019-05-07T17:21:02.216Z,14.70
2019-05-07T17:23:43.734Z,14.40
2019-05-07T17:26:04.926Z,14.20
2019-05-07T17:28:36.146Z,13.90
2019-05-07T17:31:06.383Z,13.70
2019-05-07T17:33:36.380Z,13.50
2019-05-07T17:36:06.363Z,13.30
2019-05-07T17:38:37.870Z,13.20
2019-05-07T17:41:13.589Z,13.10
2019-05-07T17:43:39.931Z,13.00
2019-05-07T17:46:09.856Z,12.90
2019-05-07T17:48:40.012Z,12.90
2019-05-07T17:51:12.431Z,13.10
2019-05-07T17:53:55.866Z,13.30
2019-05-07T17:56:14.013Z,13.40
2019-05-07T17:58:44.120Z,13.30
2019-05-07T18:01:14.027Z,13.30
2019-05-07T18:03:44.042Z,13.30
2019-05-07T18:06:13.947Z,13.30
2019-05-07T18:08:43.794Z,13.10
2019-05-07T18:11:20.802Z,13.00
2019-05-07T18:13:46.101Z,12.90
2019-05-07T18:16:17.836Z,12.80
2019-05-07T18:18:48.031Z,12.80
2019-05-07T18:21:17.872Z,12.60
2019-05-07T18:23:48.037Z,12.60
2019-05-07T18:26:29.601Z,12.50
2019-05-07T18:28:49.745Z,12.40
2019-05-07T18:31:22.155Z,12.30
2019-05-07T18:33:56.933Z,12.20
2019-05-07T18:36:26.902Z,12.10
2019-05-07T18:38:57.065Z,12.00
2019-05-07T18:41:27.191Z,11.90
2019-05-07T18:44:08.927Z,11.70
2019-05-07T18:46:28.855Z,11.60
2019-05-07T18:48:58.709Z,11.50
2019-05-07T18:51:28.551Z,11.30
2019-05-07T18:53:58.632Z,11.20
2019-05-07T18:56:28.867Z,11.00
2019-05-07T18:58:58.687Z,10.80
2019-05-07T19:01:32.651Z,10.70
2019-05-07T19:04:02.609Z,10.50
2019-05-07T19:06:32.504Z,10.40
2019-05-07T19:09:02.336Z,10.30
2019-05-07T19:11:34.126Z,10.20
2019-05-07T19:14:04.199Z,10.10
2019-05-07T19:16:34.284Z,10.00
2019-05-07T19:19:04.291Z,9.90
2019-05-07T19:21:34.164Z,9.80
2019-05-07T19:24:04.438Z,9.70
2019-05-07T19:26:34.542Z,9.70
2019-05-07T19:29:04.491Z,9.60
2019-05-07T19:31:34.681Z,9.50
2019-05-07T19:34:04.660Z,9.40
2019-05-07T19:36:34.511Z,9.30
2019-05-07T19:39:05.928Z,9.30
2019-05-07T19:41:37.484Z,9.20
2019-05-07T19:44:07.311Z,9.10
2019-05-07T19:46:37.443Z,9.00
2019-05-07T19:49:07.412Z,8.90
2019-05-07T19:51:37.289Z,8.90
2019-05-07T19:54:08.876Z,8.90
2019-05-07T19:56:42.450Z,8.90
2019-05-07T19:59:12.472Z,8.90
2019-05-07T20:01:44.441Z,8.90
2019-05-07T20:04:14.527Z,8.90
2019-05-07T20:06:44.692Z,8.90
2019-05-07T20:09:16.236Z,8.90
2019-05-07T20:11:47.786Z,8.90
2019-05-07T20:14:19.087Z,8.80
2019-05-07T20:16:49.127Z,8.80
2019-05-07T20:19:18.965Z,8.70
2019-05-07T20:21:49.122Z,8.70
2019-05-07T20:24:18.968Z,8.50
2019-05-07T20:26:52.446Z,8.50
2019-05-07T20:29:22.931Z,8.40
2019-05-07T20:31:53.369Z,8.40
2019-05-07T20:34:23.743Z,8.30
2019-05-07T20:36:53.828Z,8.20
2019-05-07T20:39:23.920Z,8.20
2019-05-07T20:41:53.781Z,8.20
2019-05-07T20:44:23.927Z,8.10
2019-05-07T20:46:54.003Z,8.00
2019-05-07T20:49:24.150Z,8.00
2019-05-07T20:51:54.021Z,7.90
2019-05-07T20:54:26.539Z,7.90
2019-05-07T20:57:02.273Z,7.80
2019-05-07T20:59:32.890Z,7.80
2019-05-07T21:02:02.908Z,7.70
2019-05-07T21:04:33.130Z,7.70
2019-05-07T21:07:03.099Z,7.60
2019-05-07T21:09:33.055Z,7.50
2019-05-07T21:12:03.276Z,7.50
2019-05-07T21:14:33.427Z,7.40
2019-05-07T21:17:03.511Z,7.50
2019-05-07T21:19:33.366Z,7.50
2019-05-07T21:22:03.238Z,7.60
2019-05-07T21:24:33.282Z,7.70
2019-05-07T21:27:03.123Z,7.70
2019-05-07T21:29:32.939Z,7.80
2019-05-07T21:32:03.452Z,7.70
2019-05-07T21:34:33.404Z,7.70
2019-05-07T21:37:04.266Z,7.60
2019-05-07T21:39:34.087Z,7.60
2019-05-07T21:42:03.908Z,7.50
2019-05-07T21:44:33.717Z,7.40
2019-05-07T21:47:04.023Z,7.30
2019-05-07T21:49:34.215Z,7.20
2019-05-07T21:52:04.106Z,7.10
2019-05-07T21:54:35.585Z,7.00
2019-05-07T21:57:12.906Z,7.00
2019-05-07T21:59:43.313Z,7.00
2019-05-07T22:02:18.227Z,7.00
2019-05-07T22:04:48.467Z,7.00
2019-05-07T22:07:18.608Z,7.00
2019-05-07T22:09:48.674Z,7.00
2019-05-07T22:12:18.765Z,7.00
2019-05-07T22:14:48.579Z,7.00
2019-05-07T22:17:18.391Z,7.10
2019-05-07T22:19:48.217Z,7.10
2019-05-07T22:22:18.088Z,7.20
2019-05-07T22:24:49.464Z,7.20
2019-05-07T22:27:22.090Z,7.20
2019-05-07T22:29:52.724Z,7.30
2019-05-07T22:32:43.773Z,7.30
2019-05-07T22:35:23.805Z,7.30
2019-05-07T22:37:58.144Z,7.40
2019-05-07T22:40:32.254Z,7.50
2019-05-07T22:43:04.005Z,7.50
2019-05-07T22:45:34.133Z,7.60
2019-05-07T22:48:04.110Z,7.60
2019-05-07T22:50:33.939Z,7.60
2019-05-07T22:53:03.751Z,7.70
2019-05-07T22:55:33.824Z,7.70
2019-05-07T22:58:08.580Z,7.70
2019-05-07T23:00:42.540Z,7.80
2019-05-07T23:03:12.530Z,7.80
2019-05-07T23:05:44.907Z,7.80
2019-05-07T23:08:14.375Z,7.80
2019-05-07T23:10:44.674Z,7.80
2019-05-07T23:13:14.825Z,7.80
2019-05-07T23:15:44.899Z,7.90
2019-05-07T23:18:14.727Z,7.90
2019-05-07T23:20:44.795Z,7.90
2019-05-07T23:23:14.872Z,7.90
2019-05-07T23:25:44.679Z,7.90
2019-05-07T23:28:14.517Z,7.90
2019-05-07T23:30:44.433Z,7.90
2019-05-07T23:33:15.595Z,7.90
2019-05-07T23:35:45.390Z,7.90
2019-05-07T23:38:15.972Z,7.90
2019-05-07T23:40:48.947Z,7.90
2019-05-07T23:43:22.608Z,7.90
2019-05-07T23:45:52.592Z,8.00
2019-05-07T23:48:22.906Z,8.00
2019-05-07T23:50:52.806Z,8.00
2019-05-07T23:53:22.868Z,8.00
2019-05-07T23:55:53.091Z,8.00
2019-05-07T23:58:23.103Z,8.10
